sensor_id;sensor_type;location;lat;lon;timestamp;pressure;altitude;pressure_sealevel;temperature;humidity
66627;BME280;53498;50.422;14.912;2022-07-12T00:01:47;99572.38;;;13.88;63.33
66627;BME280;53498;50.422;14.912;2022-07-12T00:04:12;99574.13;;;13.95;63.02
66627;BME280;53498;50.422;14.912;2022-07-12T00:06:38;99573.16;;;14.04;63.48
66627;BME280;53498;50.422;14.912;2022-07-12T00:09:04;99579.25;;;14.12;63.79
66627;BME280;53498;50.422;14.912;2022-07-12T00:11:30;99574.00;;;14.14;63.06
66627;BME280;53498;50.422;14.912;2022-07-12T00:13:56;99567.91;;;14.07;63.71
66627;BME280;53498;50.422;14.912;2022-07-12T00:16:21;99565.34;;;14.05;62.79
66627;BME280;53498;50.422;14.912;2022-07-12T00:18:48;99561.00;;;14.04;63.04
66627;BME280;53498;50.422;14.912;2022-07-12T00:21:13;99565.38;;;14.01;61.80
66627;BME280;53498;50.422;14.912;2022-07-12T00:23:39;99555.78;;;13.98;63.39
66627;BME280;53498;50.422;14.912;2022-07-12T00:26:04;99554.03;;;13.99;63.91
66627;BME280;53498;50.422;14.912;2022-07-12T00:28:31;99557.53;;;13.96;64.01
66627;BME280;53498;50.422;14.912;2022-07-12T00:30:57;99553.13;;;14.07;63.60
66627;BME280;53498;50.422;14.912;2022-07-12T00:33:23;99549.69;;;14.01;64.17
66627;BME280;53498;50.422;14.912;2022-07-12T00:35:48;99559.28;;;13.94;64.19
66627;BME280;53498;50.422;14.912;2022-07-12T00:38:14;99567.19;;;13.82;64.16
66627;BME280;53498;50.422;14.912;2022-07-12T00:40:39;99568.16;;;13.64;65.16
66627;BME280;53498;50.422;14.912;2022-07-12T00:43:05;99569.06;;;13.55;65.09
66627;BME280;53498;50.422;14.912;2022-07-12T00:45:31;99564.75;;;13.47;66.37
66627;BME280;53498;50.422;14.912;2022-07-12T00:47:57;99559.56;;;13.39;66.37
66627;BME280;53498;50.422;14.912;2022-07-12T00:50:23;99561.28;;;13.41;66.46
66627;BME280;53498;50.422;14.912;2022-07-12T00:52:51;99566.53;;;13.38;66.68
66627;BME280;53498;50.422;14.912;2022-07-12T00:55:18;99568.28;;;13.33;67.41
66627;BME280;53498;50.422;14.912;2022-07-12T00:57:44;99566.53;;;13.38;66.73
66627;BME280;53498;50.422;14.912;2022-07-12T01:00:13;99571.78;;;13.35;66.70
66627;BME280;53498;50.422;14.912;2022-07-12T01:02:40;99575.25;;;13.20;67.21
66627;BME280;53498;50.422;14.912;2022-07-12T01:05:07;99570.94;;;13.07;67.56
66627;BME280;53498;50.422;14.912;2022-07-12T01:07:34;99572.72;;;12.94;67.61
66627;BME280;53498;50.422;14.912;2022-07-12T01:10:00;99579.63;;;12.94;68.08
66627;BME280;53498;50.422;14.912;2022-07-12T01:12:25;99584.84;;;13.00;68.33
66627;BME280;53498;50.422;14.912;2022-07-12T01:14:51;99583.97;;;13.06;68.40
66627;BME280;53498;50.422;14.912;2022-07-12T01:17:22;99583.16;;;13.01;67.96
66627;BME280;53498;50.422;14.912;2022-07-12T01:19:48;99592.72;;;12.71;68.85
66627;BME280;53498;50.422;14.912;2022-07-12T01:22:16;99589.22;;;12.75;69.89
66627;BME280;53498;50.422;14.912;2022-07-12T01:24:43;99588.38;;;12.68;69.60
66627;BME280;53498;50.422;14.912;2022-07-12T01:27:08;99577.94;;;12.67;69.70
66627;BME280;53498;50.422;14.912;2022-07-12T01:29:34;99583.16;;;12.65;70.85
66627;BME280;53498;50.422;14.912;2022-07-12T01:32:00;99586.63;;;12.70;70.81
66627;BME280;53498;50.422;14.912;2022-07-12T01:34:47;99586.63;;;12.64;70.40
66627;BME280;53498;50.422;14.912;2022-07-12T01:37:14;99588.38;;;12.65;70.92
66627;BME280;53498;50.422;14.912;2022-07-12T01:39:40;99589.22;;;12.66;70.23
66627;BME280;53498;50.422;14.912;2022-07-12T01:42:12;99588.38;;;12.65;70.59
66627;BME280;53498;50.422;14.912;2022-07-12T01:44:38;99589.25;;;12.58;71.49
66627;BME280;53498;50.422;14.912;2022-07-12T01:47:04;99596.19;;;12.59;70.91
66627;BME280;53498;50.422;14.912;2022-07-12T01:49:30;99595.34;;;12.69;70.62
66627;BME280;53498;50.422;14.912;2022-07-12T01:51:55;99593.59;;;12.55;70.39
66627;BME280;53498;50.422;14.912;2022-07-12T01:54:21;99584.91;;;12.45;71.32
66627;BME280;53498;50.422;14.912;2022-07-12T01:56:47;99589.25;;;12.50;71.51
66627;BME280;53498;50.422;14.912;2022-07-12T01:59:13;99587.53;;;12.57;71.30
66627;BME280;53498;50.422;14.912;2022-07-12T02:01:39;99590.97;;;12.59;70.98
66627;BME280;53498;50.422;14.912;2022-07-12T02:04:05;99589.22;;;12.63;71.29
66627;BME280;53498;50.422;14.912;2022-07-12T02:06:31;99599.69;;;12.49;71.48
66627;BME280;53498;50.422;14.912;2022-07-12T02:08:57;99602.31;;;12.64;70.88
66627;BME280;53498;50.422;14.912;2022-07-12T02:11:23;99597.09;;;12.61;70.65
66627;BME280;53498;50.422;14.912;2022-07-12T02:13:49;99604.03;;;12.64;70.59
66627;BME280;53498;50.422;14.912;2022-07-12T02:16:15;99604.00;;;12.47;70.92
66627;BME280;53498;50.422;14.912;2022-07-12T02:18:42;99600.53;;;12.39;70.65
66627;BME280;53498;50.422;14.912;2022-07-12T02:21:07;99602.28;;;12.43;70.49
66627;BME280;53498;50.422;14.912;2022-07-12T02:23:33;99605.78;;;12.62;71.25
66627;BME280;53498;50.422;14.912;2022-07-12T02:25:58;99602.31;;;12.60;69.86
66627;BME280;53498;50.422;14.912;2022-07-12T02:28:24;99604.03;;;12.68;70.54
66627;BME280;53498;50.422;14.912;2022-07-12T02:30:49;99616.22;;;12.72;70.49
66627;BME280;53498;50.422;14.912;2022-07-12T02:33:15;99614.47;;;12.71;70.25
66627;BME280;53498;50.422;14.912;2022-07-12T02:35:44;99617.09;;;12.67;69.57
66627;BME280;53498;50.422;14.912;2022-07-12T02:38:09;99616.22;;;12.62;70.45
66627;BME280;53498;50.422;14.912;2022-07-12T02:40:35;99621.44;;;12.62;70.86
66627;BME280;53498;50.422;14.912;2022-07-12T02:43:30;99622.31;;;12.58;70.81
66627;BME280;53498;50.422;14.912;2022-07-12T02:46:22;99619.69;;;12.48;70.95
66627;BME280;53498;50.422;14.912;2022-07-12T02:48:48;99637.09;;;12.54;71.46
66627;BME280;53498;50.422;14.912;2022-07-12T02:51:14;99635.31;;;12.29;72.17
66627;BME280;53498;50.422;14.912;2022-07-12T02:53:39;99630.94;;;12.14;72.86
66627;BME280;53498;50.422;14.912;2022-07-12T02:56:05;99634.41;;;12.11;73.49
66627;BME280;53498;50.422;14.912;2022-07-12T02:58:30;99630.94;;;12.21;73.78
66627;BME280;53498;50.422;14.912;2022-07-12T03:00:56;99630.03;;;12.12;73.36
66627;BME280;53498;50.422;14.912;2022-07-12T03:03:21;99634.41;;;12.07;73.54
66627;BME280;53498;50.422;14.912;2022-07-12T03:05:47;99636.97;;;11.94;73.14
66627;BME280;53498;50.422;14.912;2022-07-12T03:08:13;99640.44;;;11.92;73.50
66627;BME280;53498;50.422;14.912;2022-07-12T03:10:39;99636.09;;;11.98;73.05
66627;BME280;53498;50.422;14.912;2022-07-12T03:13:05;99636.94;;;11.96;73.03
66627;BME280;53498;50.422;14.912;2022-07-12T03:15:31;99634.34;;;11.96;72.67
66627;BME280;53498;50.422;14.912;2022-07-12T03:17:58;99630.84;;;11.89;72.97
66627;BME280;53498;50.422;14.912;2022-07-12T03:20:24;99635.19;;;11.93;72.34
66627;BME280;53498;50.422;14.912;2022-07-12T03:22:49;99638.69;;;12.00;72.10
66627;BME280;53498;50.422;14.912;2022-07-12T03:25:17;99644.81;;;12.05;71.90
66627;BME280;53498;50.422;14.912;2022-07-12T03:27:43;99643.91;;;11.98;71.90
66627;BME280;53498;50.422;14.912;2022-07-12T03:30:09;99636.94;;;11.96;71.93
66627;BME280;53498;50.422;14.912;2022-07-12T03:32:35;99651.72;;;11.95;71.83
66627;BME280;53498;50.422;14.912;2022-07-12T03:35:01;99648.25;;;11.96;71.83
66627;BME280;53498;50.422;14.912;2022-07-12T03:37:27;99648.25;;;11.95;72.03
66627;BME280;53498;50.422;14.912;2022-07-12T03:39:53;99647.41;;;11.99;71.63
66627;BME280;53498;50.422;14.912;2022-07-12T03:42:19;99657.84;;;12.02;72.47
66627;BME280;53498;50.422;14.912;2022-07-12T03:44:45;99649.13;;;12.03;71.61
66627;BME280;53498;50.422;14.912;2022-07-12T03:47:11;99647.44;;;12.07;71.50
66627;BME280;53498;50.422;14.912;2022-07-12T03:49:37;99641.38;;;12.14;71.70
66627;BME280;53498;50.422;14.912;2022-07-12T03:52:06;99644.88;;;12.28;70.94
66627;BME280;53498;50.422;14.912;2022-07-12T03:54:32;99645.75;;;12.25;70.52
66627;BME280;53498;50.422;14.912;2022-07-12T03:56:57;99648.38;;;12.35;71.10
66627;BME280;53498;50.422;14.912;2022-07-12T03:59:38;99647.44;;;12.11;69.94
66627;BME280;53498;50.422;14.912;2022-07-12T04:02:04;99653.59;;;12.44;70.63
66627;BME280;53498;50.422;14.912;2022-07-12T04:04:30;99650.97;;;12.44;70.61
66627;BME280;53498;50.422;14.912;2022-07-12T04:06:55;99644.91;;;12.46;70.24
66627;BME280;53498;50.422;14.912;2022-07-12T04:09:21;99647.50;;;12.46;70.87
66627;BME280;53498;50.422;14.912;2022-07-12T04:11:46;99647.53;;;12.60;70.74
66627;BME280;53498;50.422;14.912;2022-07-12T04:14:12;99645.78;;;12.62;69.80
66627;BME280;53498;50.422;14.912;2022-07-12T04:16:37;99645.81;;;12.64;69.61
66627;BME280;53498;50.422;14.912;2022-07-12T04:19:03;99645.81;;;12.73;69.88
66627;BME280;53498;50.422;14.912;2022-07-12T04:21:30;99643.19;;;12.74;69.33
66627;BME280;53498;50.422;14.912;2022-07-12T04:23:56;99645.81;;;12.84;69.02
66627;BME280;53498;50.422;14.912;2022-07-12T04:26:21;99651.03;;;12.90;68.86
66627;BME280;53498;50.422;14.912;2022-07-12T04:28:47;99642.31;;;12.91;68.34
66627;BME280;53498;50.422;14.912;2022-07-12T04:31:13;99651.03;;;12.93;68.62
66627;BME280;53498;50.422;14.912;2022-07-12T04:33:38;99646.66;;;13.00;68.25
66627;BME280;53498;50.422;14.912;2022-07-12T04:36:04;99644.91;;;13.18;68.08
66627;BME280;53498;50.422;14.912;2022-07-12T04:38:29;99647.53;;;13.25;68.08
66627;BME280;53498;50.422;14.912;2022-07-12T04:40:55;99649.28;;;13.23;67.61
66627;BME280;53498;50.422;14.912;2022-07-12T04:43:20;99651.03;;;13.25;67.58
66627;BME280;53498;50.422;14.912;2022-07-12T04:45:48;99651.00;;;13.34;67.94
66627;BME280;53498;50.422;14.912;2022-07-12T04:48:14;99646.63;;;13.41;68.02
66627;BME280;53498;50.422;14.912;2022-07-12T04:50:39;99645.75;;;13.50;68.20
66627;BME280;53498;50.422;14.912;2022-07-12T04:53:05;99652.69;;;13.61;67.29
66627;BME280;53498;50.422;14.912;2022-07-12T04:55:30;99650.97;;;13.67;67.42
66627;BME280;53498;50.422;14.912;2022-07-12T04:57:56;99651.78;;;13.76;67.04
66627;BME280;53498;50.422;14.912;2022-07-12T05:00:22;99652.63;;;13.83;66.72
66627;BME280;53498;50.422;14.912;2022-07-12T05:02:47;99652.63;;;13.83;67.43
66627;BME280;53498;50.422;14.912;2022-07-12T05:05:13;99651.72;;;13.95;67.57
66627;BME280;53498;50.422;14.912;2022-07-12T05:07:40;99652.53;;;14.04;67.05
66627;BME280;53498;50.422;14.912;2022-07-12T05:10:06;99655.97;;;14.16;67.90
66627;BME280;53498;50.422;14.912;2022-07-12T05:12:32;99655.03;;;14.24;67.58
66627;BME280;53498;50.422;14.912;2022-07-12T05:14:57;99655.91;;;14.26;67.16
66627;BME280;53498;50.422;14.912;2022-07-12T05:17:23;99655.81;;;14.43;67.21
66627;BME280;53498;50.422;14.912;2022-07-12T05:19:48;99658.38;;;14.49;66.74
66627;BME280;53498;50.422;14.912;2022-07-12T05:22:14;99661.88;;;14.47;67.07
66627;BME280;53498;50.422;14.912;2022-07-12T05:24:39;99664.47;;;14.61;66.96
66627;BME280;53498;50.422;14.912;2022-07-12T05:27:05;99662.72;;;14.60;67.17
66627;BME280;53498;50.422;14.912;2022-07-12T05:29:30;99662.69;;;14.67;67.63
66627;BME280;53498;50.422;14.912;2022-07-12T05:31:56;99660.84;;;14.80;67.03
66627;BME280;53498;50.422;14.912;2022-07-12T05:34:23;99666.88;;;14.90;67.39
66627;BME280;53498;50.422;14.912;2022-07-12T05:36:48;99666.72;;;15.08;66.51
66627;BME280;53498;50.422;14.912;2022-07-12T05:39:14;99672.78;;;15.15;65.86
66627;BME280;53498;50.422;14.912;2022-07-12T05:41:39;99672.56;;;15.36;65.19
66627;BME280;53498;50.422;14.912;2022-07-12T05:44:05;99667.94;;;15.61;63.92
66627;BME280;53498;50.422;14.912;2022-07-12T05:46:31;99665.03;;;15.87;63.96
66627;BME280;53498;50.422;14.912;2022-07-12T05:48:56;99662.13;;;16.10;63.36
66627;BME280;53498;50.422;14.912;2022-07-12T05:51:22;99663.03;;;16.11;62.95
66627;BME280;53498;50.422;14.912;2022-07-12T05:54:06;99663.13;;;16.02;63.28
66627;BME280;53498;50.422;14.912;2022-07-12T05:56:32;99666.28;;;16.28;63.41
66627;BME280;53498;50.422;14.912;2022-07-12T05:58:57;99664.38;;;16.39;62.73
66627;BME280;53498;50.422;14.912;2022-07-12T06:01:24;99667.38;;;16.75;62.53
66627;BME280;53498;50.422;14.912;2022-07-12T06:03:50;99670.13;;;17.22;62.00
66627;BME280;53498;50.422;14.912;2022-07-12T06:06:15;99678.00;;;17.70;59.72
66627;BME280;53498;50.422;14.912;2022-07-12T06:08:40;99676.59;;;17.52;59.36
66627;BME280;53498;50.422;14.912;2022-07-12T06:11:06;99677.53;;;17.96;58.53
66627;BME280;53498;50.422;14.912;2022-07-12T06:13:32;99679.06;;;18.87;56.41
66627;BME280;53498;50.422;14.912;2022-07-12T06:16:00;99656.66;;;20.89;51.28
66627;BME280;53498;50.422;14.912;2022-07-12T06:18:26;99671.28;;;21.52;48.14
66627;BME280;53498;50.422;14.912;2022-07-12T06:20:52;99656.97;;;22.53;45.92
66627;BME280;53498;50.422;14.912;2022-07-12T06:23:23;99659.97;;;22.66;44.91
66627;BME280;53498;50.422;14.912;2022-07-12T06:25:49;99664.72;;;22.58;44.71
66627;BME280;53498;50.422;14.912;2022-07-12T06:28:14;99672.06;;;23.38;44.07
66627;BME280;53498;50.422;14.912;2022-07-12T06:30:40;99664.50;;;23.90;43.33
66627;BME280;53498;50.422;14.912;2022-07-12T06:33:06;99665.19;;;23.74;42.83
66627;BME280;53498;50.422;14.912;2022-07-12T06:35:32;99666.56;;;23.00;43.52
66627;BME280;53498;50.422;14.912;2022-07-12T06:37:59;99667.97;;;23.71;43.11
66627;BME280;53498;50.422;14.912;2022-07-12T06:40:25;99673.81;;;23.39;42.89
66627;BME280;53498;50.422;14.912;2022-07-12T06:42:50;99675.03;;;21.20;47.02
66627;BME280;53498;50.422;14.912;2022-07-12T06:45:16;99681.91;;;20.41;49.06
66627;BME280;53498;50.422;14.912;2022-07-12T06:47:42;99677.91;;;20.58;49.92
66627;BME280;53498;50.422;14.912;2022-07-12T06:50:07;99686.91;;;19.91;51.36
66627;BME280;53498;50.422;14.912;2022-07-12T06:52:33;99682.88;;;20.09;51.93
66627;BME280;53498;50.422;14.912;2022-07-12T06:54:59;99675.94;;;20.05;51.30
66627;BME280;53498;50.422;14.912;2022-07-12T06:57:25;99675.56;;;20.19;50.36
66627;BME280;53498;50.422;14.912;2022-07-12T06:59:52;99677.94;;;20.28;50.55
66627;BME280;53498;50.422;14.912;2022-07-12T07:02:17;99679.09;;;19.86;52.17
66627;BME280;53498;50.422;14.912;2022-07-12T07:04:43;99684.09;;;19.97;52.86
66627;BME280;53498;50.422;14.912;2022-07-12T07:07:08;99679.53;;;20.02;51.63
66627;BME280;53498;50.422;14.912;2022-07-12T07:09:35;99680.34;;;19.75;52.54
66627;BME280;53498;50.422;14.912;2022-07-12T07:12:00;99673.88;;;19.85;53.27
66627;BME280;53498;50.422;14.912;2022-07-12T07:14:26;99680.78;;;19.89;52.92
66627;BME280;53498;50.422;14.912;2022-07-12T07:16:53;99679.00;;;19.90;53.12
66627;BME280;53498;50.422;14.912;2022-07-12T07:19:19;99679.72;;;19.63;52.96
66627;BME280;53498;50.422;14.912;2022-07-12T07:21:44;99681.66;;;19.24;54.18
66627;BME280;53498;50.422;14.912;2022-07-12T07:24:10;99681.28;;;19.38;54.40
66627;BME280;53498;50.422;14.912;2022-07-12T07:26:35;99686.47;;;19.75;53.42
66627;BME280;53498;50.422;14.912;2022-07-12T07:29:01;99679.88;;;20.49;52.19
66627;BME280;53498;50.422;14.912;2022-07-12T07:31:45;99670.53;;;20.69;50.49
66627;BME280;53498;50.422;14.912;2022-07-12T07:34:10;99682.19;;;20.32;51.92
66627;BME280;53498;50.422;14.912;2022-07-12T07:36:36;99682.38;;;20.26;52.63
66627;BME280;53498;50.422;14.912;2022-07-12T07:39:02;99683.94;;;20.63;52.34
66627;BME280;53498;50.422;14.912;2022-07-12T07:41:28;99688.66;;;21.34;51.30
66627;BME280;53498;50.422;14.912;2022-07-12T07:43:54;99696.06;;;20.40;50.85
66627;BME280;53498;50.422;14.912;2022-07-12T07:46:19;99692.69;;;20.35;51.56
66627;BME280;53498;50.422;14.912;2022-07-12T07:48:45;99690.81;;;20.09;51.42
66627;BME280;53498;50.422;14.912;2022-07-12T07:51:10;99690.22;;;20.29;51.21
66627;BME280;53498;50.422;14.912;2022-07-12T07:53:36;99685.38;;;20.14;51.38
66627;BME280;53498;50.422;14.912;2022-07-12T07:56:01;99672.72;;;20.54;52.00
66627;BME280;53498;50.422;14.912;2022-07-12T07:58:27;99680.19;;;20.70;51.12
66627;BME280;53498;50.422;14.912;2022-07-12T08:00:53;99684.53;;;20.71;50.88
66627;BME280;53498;50.422;14.912;2022-07-12T08:03:20;99687.53;;;20.60;50.54
66627;BME280;53498;50.422;14.912;2022-07-12T08:05:46;99679.81;;;20.80;50.98
66627;BME280;53498;50.422;14.912;2022-07-12T08:08:15;99680.00;;;21.29;51.57
66627;BME280;53498;50.422;14.912;2022-07-12T08:10:40;99681.19;;;21.72;48.63
66627;BME280;53498;50.422;14.912;2022-07-12T08:13:06;99680.06;;;21.78;48.24
66627;BME280;53498;50.422;14.912;2022-07-12T08:15:31;99674.22;;;21.69;48.79
66627;BME280;53498;50.422;14.912;2022-07-12T08:17:57;99680.59;;;21.64;47.77
66627;BME280;53498;50.422;14.912;2022-07-12T08:20:23;99674.69;;;21.02;48.35
66627;BME280;53498;50.422;14.912;2022-07-12T08:22:49;99672.28;;;21.23;49.89
66627;BME280;53498;50.422;14.912;2022-07-12T08:25:15;99666.97;;;21.23;47.53
66627;BME280;53498;50.422;14.912;2022-07-12T08:27:41;99659.75;;;21.01;49.19
66627;BME280;53498;50.422;14.912;2022-07-12T08:30:07;99665.34;;;21.45;47.99
66627;BME280;53498;50.422;14.912;2022-07-12T08:32:32;99661.81;;;21.95;47.16
66627;BME280;53498;50.422;14.912;2022-07-12T08:34:58;99668.44;;;21.58;46.96
66627;BME280;53498;50.422;14.912;2022-07-12T08:37:24;99666.91;;;21.76;47.31
66627;BME280;53498;50.422;14.912;2022-07-12T08:39:50;99660.69;;;22.26;46.42
66627;BME280;53498;50.422;14.912;2022-07-12T08:42:17;99659.41;;;22.36;44.38
66627;BME280;53498;50.422;14.912;2022-07-12T08:44:44;99662.16;;;22.33;44.20
66627;BME280;53498;50.422;14.912;2022-07-12T08:47:18;99661.38;;;22.06;43.66
66627;BME280;53498;50.422;14.912;2022-07-12T08:50:10;99656.47;;;22.20;44.05
66627;BME280;53498;50.422;14.912;2022-07-12T08:52:45;99657.97;;;22.27;44.20
66627;BME280;53498;50.422;14.912;2022-07-12T08:55:33;99660.69;;;21.77;43.25
66627;BME280;53498;50.422;14.912;2022-07-12T08:58:04;99659.38;;;22.12;44.88
66627;BME280;53498;50.422;14.912;2022-07-12T09:00:32;99669.06;;;22.13;43.83
66627;BME280;53498;50.422;14.912;2022-07-12T09:02:59;99667.84;;;21.23;44.12
66627;BME280;53498;50.422;14.912;2022-07-12T09:05:27;99671.84;;;20.82;45.99
66627;BME280;53498;50.422;14.912;2022-07-12T09:08:11;99669.91;;;20.61;46.68
66627;BME280;53498;50.422;14.912;2022-07-12T09:13:14;99678.09;;;20.51;47.49
66627;BME280;53498;50.422;14.912;2022-07-12T09:15:40;99667.91;;;20.95;46.92
66627;BME280;53498;50.422;14.912;2022-07-12T09:18:06;99672.69;;;21.11;45.35
66627;BME280;53498;50.422;14.912;2022-07-12T09:20:38;99665.69;;;21.08;44.74
66627;BME280;53498;50.422;14.912;2022-07-12T09:23:11;99677.81;;;20.89;46.38
66627;BME280;53498;50.422;14.912;2022-07-12T09:25:37;99673.09;;;20.98;45.75
66627;BME280;53498;50.422;14.912;2022-07-12T09:28:06;99666.91;;;21.51;47.95
66627;BME280;53498;50.422;14.912;2022-07-12T09:30:33;99678.56;;;21.70;44.17
66627;BME280;53498;50.422;14.912;2022-07-12T09:33:01;99672.25;;;21.49;44.77
66627;BME280;53498;50.422;14.912;2022-07-12T09:36:01;99669.97;;;21.40;44.98
66627;BME280;53498;50.422;14.912;2022-07-12T09:38:48;99666.88;;;20.73;45.50
66627;BME280;53498;50.422;14.912;2022-07-12T09:41:18;99673.72;;;20.50;46.95
66627;BME280;53498;50.422;14.912;2022-07-12T09:43:44;99678.22;;;20.47;47.95
66627;BME280;53498;50.422;14.912;2022-07-12T09:46:10;99675.44;;;20.81;46.77
66627;BME280;53498;50.422;14.912;2022-07-12T09:48:40;99674.41;;;21.12;45.43
66627;BME280;53498;50.422;14.912;2022-07-12T09:51:08;99671.25;;;21.54;43.50
66627;BME280;53498;50.422;14.912;2022-07-12T09:53:45;99677.28;;;21.57;43.64
66627;BME280;53498;50.422;14.912;2022-07-12T09:56:13;99672.47;;;21.43;42.90
66627;BME280;53498;50.422;14.912;2022-07-12T09:58:52;99673.28;;;21.70;42.04
66627;BME280;53498;50.422;14.912;2022-07-12T10:01:22;99672.03;;;21.56;42.50
66627;BME280;53498;50.422;14.912;2022-07-12T10:03:52;99670.97;;;21.61;41.24
66627;BME280;53498;50.422;14.912;2022-07-12T10:06:26;99672.81;;;22.08;41.74
66627;BME280;53498;50.422;14.912;2022-07-12T10:08:52;99670.72;;;21.92;42.06
66627;BME280;53498;50.422;14.912;2022-07-12T10:11:19;99680.47;;;21.67;40.99
66627;BME280;53498;50.422;14.912;2022-07-12T10:13:45;99674.25;;;21.43;40.01
66627;BME280;53498;50.422;14.912;2022-07-12T10:16:13;99673.69;;;21.33;41.41
66627;BME280;53498;50.422;14.912;2022-07-12T10:18:39;99661.53;;;21.54;41.83
66627;BME280;53498;50.422;14.912;2022-07-12T10:21:21;99660.41;;;21.85;42.42
66627;BME280;53498;50.422;14.912;2022-07-12T10:23:49;99651.53;;;21.86;42.84
66627;BME280;53498;50.422;14.912;2022-07-12T10:29:04;99658.16;;;21.74;41.58
66627;BME280;53498;50.422;14.912;2022-07-12T10:31:39;99648.28;;;21.27;42.27
66627;BME280;53498;50.422;14.912;2022-07-12T10:37:07;99650.72;;;21.60;42.58
66627;BME280;53498;50.422;14.912;2022-07-12T10:39:32;99650.50;;;21.90;41.19
66627;BME280;53498;50.422;14.912;2022-07-12T10:44:38;99660.38;;;21.61;41.24
66627;BME280;53498;50.422;14.912;2022-07-12T10:47:05;99654.31;;;21.58;42.31
66627;BME280;53498;50.422;14.912;2022-07-12T10:49:32;99658.56;;;21.87;41.39
66627;BME280;53498;50.422;14.912;2022-07-12T10:54:41;99631.66;;;22.67;40.30
66627;BME280;53498;50.422;14.912;2022-07-12T10:57:07;99640.09;;;22.32;38.03
66627;BME280;53498;50.422;14.912;2022-07-12T10:59:35;99647.34;;;21.80;38.97
66627;BME280;53498;50.422;14.912;2022-07-12T11:02:07;99649.31;;;21.75;40.00
66627;BME280;53498;50.422;14.912;2022-07-12T11:04:48;99636.75;;;22.04;40.98
66627;BME280;53498;50.422;14.912;2022-07-12T11:07:18;99636.03;;;22.68;40.23
66627;BME280;53498;50.422;14.912;2022-07-12T11:09:43;99635.47;;;22.37;40.58
66627;BME280;53498;50.422;14.912;2022-07-12T11:12:09;99633.50;;;22.43;41.33
66627;BME280;53498;50.422;14.912;2022-07-12T11:14:35;99651.34;;;21.90;40.66
66627;BME280;53498;50.422;14.912;2022-07-12T11:17:01;99651.13;;;21.73;39.19
66627;BME280;53498;50.422;14.912;2022-07-12T11:19:28;99648.09;;;22.07;38.22
66627;BME280;53498;50.422;14.912;2022-07-12T11:21:55;99640.88;;;22.11;38.82
66627;BME280;53498;50.422;14.912;2022-07-12T11:24:27;99638.44;;;22.06;39.88
66627;BME280;53498;50.422;14.912;2022-07-12T11:26:53;99630.91;;;22.85;39.19
66627;BME280;53498;50.422;14.912;2022-07-12T11:29:19;99637.09;;;23.28;39.12
66627;BME280;53498;50.422;14.912;2022-07-12T11:31:45;99634.03;;;23.78;39.33
66627;BME280;53498;50.422;14.912;2022-07-12T11:34:24;99650.03;;;23.36;38.26
66627;BME280;53498;50.422;14.912;2022-07-12T11:36:52;99646.16;;;22.80;37.71
66627;BME280;53498;50.422;14.912;2022-07-12T11:42:01;99641.31;;;22.90;37.05
66627;BME280;53498;50.422;14.912;2022-07-12T11:47:08;99637.22;;;22.82;37.68
66627;BME280;53498;50.422;14.912;2022-07-12T11:49:34;99651.81;;;22.93;36.22
66627;BME280;53498;50.422;14.912;2022-07-12T11:52:00;99645.94;;;22.84;35.36
66627;BME280;53498;50.422;14.912;2022-07-12T11:54:25;99644.84;;;22.90;35.96
66627;BME280;53498;50.422;14.912;2022-07-12T11:57:07;99632.91;;;22.58;36.21
66627;BME280;53498;50.422;14.912;2022-07-12T12:05:49;99650.81;;;23.17;36.65
66627;BME280;53498;50.422;14.912;2022-07-12T12:08:15;99645.19;;;22.60;36.19
66627;BME280;53498;50.422;14.912;2022-07-12T12:10:43;99640.38;;;22.70;37.07
66627;BME280;53498;50.422;14.912;2022-07-12T12:13:14;99638.75;;;23.10;37.39
66627;BME280;53498;50.422;14.912;2022-07-12T12:15:41;99638.44;;;23.38;36.06
66627;BME280;53498;50.422;14.912;2022-07-12T12:18:13;99639.41;;;23.76;36.07
66627;BME280;53498;50.422;14.912;2022-07-12T12:20:40;99647.84;;;24.24;36.15
66627;BME280;53498;50.422;14.912;2022-07-12T12:23:27;99650.81;;;24.37;35.98
66627;BME280;53498;50.422;14.912;2022-07-12T12:26:17;99652.63;;;23.37;33.67
66627;BME280;53498;50.422;14.912;2022-07-12T12:28:47;99643.34;;;23.47;36.12
66627;BME280;53498;50.422;14.912;2022-07-12T12:31:15;99648.22;;;23.97;36.43
66627;BME280;53498;50.422;14.912;2022-07-12T12:33:50;99640.63;;;24.46;35.58
66627;BME280;53498;50.422;14.912;2022-07-12T12:38:57;99631.38;;;23.58;35.47
66627;BME280;53498;50.422;14.912;2022-07-12T12:41:25;99639.94;;;23.64;34.86
66627;BME280;53498;50.422;14.912;2022-07-12T12:44:03;99635.16;;;23.11;35.46
66627;BME280;53498;50.422;14.912;2022-07-12T12:49:18;99627.72;;;22.55;35.62
66627;BME280;53498;50.422;14.912;2022-07-12T12:52:00;99634.44;;;22.85;35.46
66627;BME280;53498;50.422;14.912;2022-07-12T12:54:35;99617.25;;;23.57;35.41
66627;BME280;53498;50.422;14.912;2022-07-12T12:57:02;99630.56;;;23.55;34.39
66627;BME280;53498;50.422;14.912;2022-07-12T12:59:35;99636.34;;;23.24;35.02
66627;BME280;53498;50.422;14.912;2022-07-12T13:02:02;99644.22;;;22.83;34.68
66627;BME280;53498;50.422;14.912;2022-07-12T13:04:29;99631.09;;;22.80;36.04
66627;BME280;53498;50.422;14.912;2022-07-12T13:06:56;99633.75;;;22.80;35.77
66627;BME280;53498;50.422;14.912;2022-07-12T13:09:22;99637.72;;;22.48;35.27
66627;BME280;53498;50.422;14.912;2022-07-12T13:11:51;99643.13;;;22.45;35.48
66627;BME280;53498;50.422;14.912;2022-07-12T13:14:16;99636.88;;;22.90;36.08
66627;BME280;53498;50.422;14.912;2022-07-12T13:16:42;99628.13;;;23.10;35.11
66627;BME280;53498;50.422;14.912;2022-07-12T13:19:08;99622.88;;;23.49;35.17
66627;BME280;53498;50.422;14.912;2022-07-12T13:21:40;99610.22;;;23.15;34.35
66627;BME280;53498;50.422;14.912;2022-07-12T13:24:12;99608.75;;;23.49;34.62